createdAt,value
2023-02-22T00:00:48.965Z,-13.34
2023-02-22T00:01:49.016Z,-13.31
2023-02-22T00:02:50.263Z,-13.41
2023-02-22T00:03:50.298Z,-13.41
2023-02-22T00:04:49.140Z,-13.43
2023-02-22T00:05:49.020Z,-13.44
2023-02-22T00:06:49.070Z,-13.5
2023-02-22T00:07:49.094Z,-13.57
2023-02-22T00:08:49.104Z,-13.61
2023-02-22T00:09:49.182Z,-13.61
2023-02-22T00:10:49.451Z,-13.66
2023-02-22T00:11:49.149Z,-13.57
2023-02-22T00:12:49.843Z,-13.7
2023-02-22T00:13:49.433Z,-13.74
2023-02-22T00:14:49.290Z,-13.82
2023-02-22T00:15:49.244Z,-13.91
2023-02-22T00:16:49.215Z,-13.81
2023-02-22T00:17:49.260Z,-13.83
2023-02-22T00:18:49.469Z,-13.87
2023-02-22T00:19:49.328Z,-13.71
2023-02-22T00:20:49.451Z,-13.63
2023-02-22T00:21:52.031Z,-13.61
2023-02-22T00:22:50.620Z,-13.59
2023-02-22T00:23:50.045Z,-13.6
2023-02-22T00:24:49.875Z,-13.68
2023-02-22T00:25:50.340Z,-13.68
2023-02-22T00:26:51.257Z,-13.76
2023-02-22T00:27:51.191Z,-13.65
2023-02-22T00:28:53.935Z,-13.7
2023-02-22T00:29:50.206Z,-13.7
2023-02-22T00:30:50.772Z,-13.82
2023-02-22T00:31:50.509Z,-13.78
2023-02-22T00:32:50.684Z,-13.83
2023-02-22T00:33:50.221Z,-13.89
2023-02-22T00:34:56.278Z,-14
2023-02-22T00:35:52.474Z,-13.91
2023-02-22T00:36:52.505Z,-13.93
2023-02-22T00:37:53.354Z,-13.99
2023-02-22T00:38:52.544Z,-13.97
2023-02-22T00:39:53.048Z,-13.99
2023-02-22T00:40:53.109Z,-13.95
2023-02-22T00:41:53.118Z,-14.14
2023-02-22T00:42:53.095Z,-14.08
2023-02-22T00:43:53.130Z,-14.05
2023-02-22T00:44:53.149Z,-13.95
2023-02-22T00:45:53.375Z,-14.06
2023-02-22T00:46:53.192Z,-14.01
2023-02-22T00:47:53.378Z,-13.96
2023-02-22T00:48:53.208Z,-14.03
2023-02-22T00:49:53.218Z,-14.1
2023-02-22T00:50:53.272Z,-14.15
2023-02-22T00:51:53.240Z,-14.25
2023-02-22T00:52:54.294Z,-14.29
2023-02-22T00:53:53.263Z,-14.31
2023-02-22T00:54:54.405Z,-14.34
2023-02-22T00:55:53.746Z,-14.29
2023-02-22T00:56:53.655Z,-14.23
2023-02-22T00:57:54.019Z,-14.21
2023-02-22T00:58:53.359Z,-14.2
2023-02-22T00:59:53.514Z,-14.13
2023-02-22T01:00:53.454Z,-14.25
2023-02-22T01:01:53.452Z,-14.31
2023-02-22T01:02:53.833Z,-14.32
2023-02-22T01:03:53.552Z,-14.35
2023-02-22T01:04:53.443Z,-14.43
2023-02-22T01:05:53.516Z,-14.56
2023-02-22T01:06:53.536Z,-14.53
2023-02-22T01:07:54.206Z,-14.61
2023-02-22T01:08:53.554Z,-14.57
2023-02-22T01:09:53.566Z,-14.52
2023-02-22T01:10:53.577Z,-14.33
2023-02-22T01:11:54.099Z,-14.32
2023-02-22T01:12:54.242Z,-14.33
2023-02-22T01:13:54.234Z,-14.23
2023-02-22T01:14:53.646Z,-14.17
2023-02-22T01:15:53.663Z,-14.25
2023-02-22T01:16:54.562Z,-14.28
2023-02-22T01:17:53.765Z,-14.25
2023-02-22T01:18:53.757Z,-14.34
2023-02-22T01:19:54.081Z,-14.31
2023-02-22T01:20:53.873Z,-14.31
2023-02-22T01:21:53.716Z,-14.29
2023-02-22T01:22:55.253Z,-14.29
2023-02-22T01:23:53.751Z,-14.36
2023-02-22T01:24:53.797Z,-14.29
2023-02-22T01:25:53.813Z,-14.42
2023-02-22T01:26:53.835Z,-14.41
2023-02-22T01:27:54.634Z,-14.41
2023-02-22T01:28:53.884Z,-14.4
2023-02-22T01:29:53.890Z,-14.38
2023-02-22T01:30:54.201Z,-14.44
2023-02-22T01:31:55.077Z,-14.41
2023-02-22T01:32:54.108Z,-14.39
2023-02-22T01:33:54.018Z,-14.54
2023-02-22T01:34:54.095Z,-14.72
2023-02-22T01:35:53.996Z,-15.02
2023-02-22T01:36:54.064Z,-15.02
2023-02-22T01:37:54.179Z,-14.87
2023-02-22T01:38:54.057Z,-14.7
2023-02-22T01:39:54.065Z,-14.87
2023-02-22T01:40:54.105Z,-14.62
2023-02-22T01:41:54.340Z,-14.54
2023-02-22T01:42:55.756Z,-14.53
2023-02-22T01:43:54.156Z,-14.38
2023-02-22T01:46:05.883Z,-14.39
2023-02-22T01:47:04.518Z,-14.47
2023-02-22T01:49:06.079Z,-14.4
2023-02-22T01:50:02.352Z,-14.4
2023-02-22T01:52:08.235Z,-14.51
2023-02-22T01:53:07.695Z,-14.61
2023-02-22T01:54:08.998Z,-14.6
2023-02-22T01:55:06.399Z,-14.64
2023-02-22T01:56:06.302Z,-14.63
2023-02-22T01:57:11.782Z,-14.73
2023-02-22T01:58:08.133Z,-14.63
2023-02-22T01:59:10.345Z,-14.59
2023-02-22T02:00:09.941Z,-14.59
2023-02-22T02:01:08.765Z,-14.62
2023-02-22T02:02:08.083Z,-14.68
2023-02-22T02:03:11.546Z,-14.68
2023-02-22T02:05:12.140Z,-14.64
2023-02-22T02:06:13.909Z,-14.7
2023-02-22T02:07:13.733Z,-14.83
2023-02-22T02:08:19.898Z,-14.81
2023-02-22T02:10:21.242Z,-14.75
2023-02-22T02:11:22.552Z,-14.76
2023-02-22T02:12:21.625Z,-14.74
2023-02-22T02:13:21.084Z,-14.65
2023-02-22T02:14:21.465Z,-14.74
2023-02-22T02:15:28.569Z,-14.68
2023-02-22T02:16:27.077Z,-14.72
2023-02-22T02:17:24.881Z,-14.84
2023-02-22T02:18:26.508Z,-14.9
2023-02-22T02:20:30.700Z,-15.16
2023-02-22T02:26:51.763Z,-15.32
2023-02-22T02:31:06.081Z,-15.35
2023-02-22T02:34:09.215Z,-15.38
2023-02-22T02:36:15.917Z,-15.54
2023-02-22T02:38:19.954Z,-15.63
2023-02-22T02:41:27.768Z,-15.72
2023-02-22T02:42:28.408Z,-15.72
2023-02-22T02:43:31.796Z,-15.75
2023-02-22T02:45:33.045Z,-15.66
2023-02-22T02:47:33.178Z,-15.52
2023-02-22T02:48:33.366Z,-15.59
2023-02-22T02:49:35.525Z,-15.53
2023-02-22T02:51:38.452Z,-15.54
2023-02-22T02:52:35.327Z,-15.57
2023-02-22T02:53:37.192Z,-15.56
2023-02-22T02:54:36.900Z,-15.59
2023-02-22T02:55:35.706Z,-15.6
2023-02-22T02:56:35.192Z,-15.6
2023-02-22T02:57:35.090Z,-15.66
2023-02-22T02:59:39.958Z,-15.63
2023-02-22T03:00:41.854Z,-15.62
2023-02-22T03:13:21.214Z,-15.8
2023-02-22T03:14:22.501Z,-15.8
2023-02-22T03:15:22.483Z,-15.69
2023-02-22T03:25:43.075Z,-15.68
2023-02-22T03:27:48.023Z,-15.68
2023-02-22T03:28:47.375Z,-15.73
2023-02-22T03:29:45.225Z,-15.84
2023-02-22T03:30:52.005Z,-15.77
2023-02-22T03:31:54.679Z,-15.81
2023-02-22T03:32:53.687Z,-15.84
2023-02-22T03:33:53.667Z,-15.88
2023-02-22T03:34:54.389Z,-15.81
2023-02-22T03:35:54.584Z,-15.81
2023-02-22T03:36:54.406Z,-15.75
2023-02-22T03:37:55.465Z,-15.81
2023-02-22T03:38:53.187Z,-15.85
2023-02-22T03:39:54.117Z,-15.88
2023-02-22T03:40:54.028Z,-15.9
2023-02-22T03:41:51.708Z,-15.84
2023-02-22T03:42:54.288Z,-15.93
2023-02-22T03:43:58.963Z,-15.92
2023-02-22T03:44:57.943Z,-15.97
2023-02-22T03:45:55.222Z,-15.98
2023-02-22T03:46:55.888Z,-16
2023-02-22T03:51:03.385Z,-15.99
2023-02-22T03:52:03.913Z,-15.86
2023-02-22T03:53:03.298Z,-15.78
2023-02-22T03:54:03.612Z,-15.83
2023-02-22T03:55:04.492Z,-15.92
2023-02-22T03:56:04.175Z,-15.95
2023-02-22T03:57:06.692Z,-16.12
2023-02-22T03:58:05.781Z,-16.1
2023-02-22T03:59:07.433Z,-16.07
2023-02-22T04:00:08.988Z,-16.08
2023-02-22T04:01:05.262Z,-16.04
2023-02-22T04:02:05.203Z,-16.04
2023-02-22T04:03:05.420Z,-16.08
2023-02-22T04:04:05.639Z,-15.99
2023-02-22T04:05:05.788Z,-16.19
2023-02-22T04:06:05.763Z,-16.11
2023-02-22T04:07:05.313Z,-16.01
2023-02-22T04:08:05.270Z,-15.99
2023-02-22T04:09:05.342Z,-16.11
2023-02-22T04:10:05.779Z,-16.35
2023-02-22T04:11:05.556Z,-16.43
2023-02-22T04:12:05.672Z,-16.26
2023-02-22T04:13:05.856Z,-16.36
2023-02-22T04:14:05.684Z,-16.66
2023-02-22T04:15:06.312Z,-16.57
2023-02-22T04:16:05.830Z,-16.71
2023-02-22T04:17:05.455Z,-16.64
2023-02-22T04:18:05.529Z,-16.73
2023-02-22T04:19:05.620Z,-16.69
2023-02-22T04:20:05.968Z,-16.83
2023-02-22T04:21:05.546Z,-16.81
2023-02-22T04:22:05.604Z,-17.15
2023-02-22T04:23:05.647Z,-16.89
2023-02-22T04:24:05.951Z,-17.14
2023-02-22T04:25:05.968Z,-17.05
2023-02-22T04:26:05.593Z,-17.66
2023-02-22T04:27:05.752Z,-17.67
2023-02-22T04:28:05.632Z,-17.43
2023-02-22T04:29:05.657Z,-17.64
2023-02-22T04:30:06.056Z,-17.21
2023-02-22T04:31:05.788Z,-17.26
2023-02-22T04:32:05.947Z,-17.29
2023-02-22T04:33:05.866Z,-17.25
2023-02-22T04:34:05.739Z,-17.22
2023-02-22T04:35:06.347Z,-17.08
2023-02-22T04:36:06.152Z,-17.04
2023-02-22T04:37:05.839Z,-17.04
2023-02-22T04:38:05.802Z,-16.7
2023-02-22T04:39:05.817Z,-16.51
2023-02-22T04:40:06.289Z,-16.53
2023-02-22T04:41:05.834Z,-16.42
2023-02-22T04:42:05.893Z,-16.36
2023-02-22T04:43:05.868Z,-16.4
2023-02-22T04:44:05.897Z,-16.44
2023-02-22T04:45:06.846Z,-16.81
2023-02-22T04:46:05.967Z,-17.35
2023-02-22T04:47:05.939Z,-17.43
2023-02-22T04:48:05.977Z,-17.29
2023-02-22T04:49:05.953Z,-17.07
2023-02-22T04:50:06.843Z,-16.83
2023-02-22T04:51:06.458Z,-16.77
2023-02-22T04:52:08.040Z,-16.63
2023-02-22T04:53:06.152Z,-16.45
2023-02-22T04:54:06.024Z,-16.15
2023-02-22T04:55:06.165Z,-16.18
2023-02-22T04:56:06.279Z,-16.1
2023-02-22T04:57:06.089Z,-16.27
2023-02-22T04:58:08.689Z,-16.46
2023-02-22T04:59:06.123Z,-16.6
2023-02-22T05:00:06.585Z,-16.65
2023-02-22T05:01:06.171Z,-16.71
2023-02-22T05:02:06.168Z,-16.62
2023-02-22T05:03:06.270Z,-16.74
2023-02-22T05:04:07.080Z,-16.73
2023-02-22T05:05:06.737Z,-16.81
2023-02-22T05:06:06.601Z,-16.86
2023-02-22T05:07:06.248Z,-16.85
2023-02-22T05:08:06.444Z,-16.94
2023-02-22T05:09:06.292Z,-16.96
2023-02-22T05:10:06.501Z,-17
2023-02-22T05:11:06.338Z,-17
2023-02-22T05:12:06.687Z,-16.98
2023-02-22T05:13:06.384Z,-16.92
2023-02-22T05:14:06.495Z,-16.88
2023-02-22T05:15:07.434Z,-16.78
2023-02-22T05:16:06.662Z,-16.59
2023-02-22T05:17:06.404Z,-16.49
2023-02-22T05:18:06.420Z,-16.44
2023-02-22T05:19:06.412Z,-16.4
2023-02-22T05:20:06.787Z,-16.35
2023-02-22T05:21:06.497Z,-16.27
2023-02-22T05:22:06.503Z,-16.35
2023-02-22T05:23:06.514Z,-16.34
2023-02-22T05:24:06.788Z,-16.4
2023-02-22T05:25:06.668Z,-16.4
2023-02-22T05:26:06.595Z,-16.46
2023-02-22T05:27:06.566Z,-16.3
2023-02-22T05:28:12.103Z,-16.09
2023-02-22T05:29:08.320Z,-15.98
2023-02-22T05:30:10.479Z,-15.82
2023-02-22T05:31:08.545Z,-15.8
2023-02-22T05:32:08.402Z,-15.76
2023-02-22T05:33:09.228Z,-15.71
2023-02-22T05:34:08.475Z,-15.7
2023-02-22T05:35:08.439Z,-15.73
2023-02-22T05:36:08.599Z,-15.6
2023-02-22T05:37:08.432Z,-15.55
2023-02-22T05:38:09.978Z,-15.55
2023-02-22T05:39:08.560Z,-15.52
2023-02-22T05:40:08.841Z,-15.54
2023-02-22T05:41:09.048Z,-15.57
2023-02-22T05:42:08.543Z,-15.54
2023-02-22T05:43:09.056Z,-15.57
2023-02-22T05:44:08.566Z,-15.61
2023-02-22T05:45:09.072Z,-15.53
2023-02-22T05:46:08.620Z,-15.55
2023-02-22T05:47:08.609Z,-15.58
2023-02-22T05:48:08.629Z,-15.53
2023-02-22T05:49:08.664Z,-15.59
2023-02-22T05:50:09.297Z,-15.58
2023-02-22T05:51:08.682Z,-15.83
2023-02-22T05:52:08.698Z,-15.67
2023-02-22T05:53:08.691Z,-15.67
2023-02-22T05:54:08.849Z,-15.56
2023-02-22T05:55:09.422Z,-15.59
2023-02-22T05:56:08.938Z,-15.59
2023-02-22T05:57:08.959Z,-15.58
2023-02-22T05:58:08.785Z,-15.54
2023-02-22T05:59:08.963Z,-15.49
2023-02-22T06:00:10.894Z,-15.54
2023-02-22T06:01:09.246Z,-15.58
2023-02-22T06:02:08.939Z,-15.57
2023-02-22T06:03:10.017Z,-15.57
2023-02-22T06:04:08.881Z,-15.58
2023-02-22T06:05:09.256Z,-15.61
2023-02-22T06:06:08.896Z,-15.61
2023-02-22T06:07:09.163Z,-15.66
2023-02-22T06:08:08.995Z,-15.59
2023-02-22T06:09:08.966Z,-15.65
2023-02-22T06:10:08.989Z,-15.62
2023-02-22T06:11:09.035Z,-15.69
2023-02-22T06:12:09.388Z,-15.71
2023-02-22T06:13:09.042Z,-15.74
2023-02-22T06:14:09.019Z,-15.77
2023-02-22T06:15:09.137Z,-15.78
2023-02-22T06:16:09.144Z,-15.78
2023-02-22T06:17:09.073Z,-15.78
2023-02-22T06:18:09.074Z,-15.79
2023-02-22T06:19:09.408Z,-15.76
2023-02-22T06:20:10.426Z,-15.76
2023-02-22T06:21:09.301Z,-15.79
2023-02-22T06:22:15.648Z,-15.81
2023-02-22T06:23:11.869Z,-15.81
2023-02-22T06:24:11.856Z,-15.82
2023-02-22T06:25:16.184Z,-15.85
2023-02-22T06:26:15.436Z,-15.84
2023-02-22T06:27:12.533Z,-15.79
2023-02-22T06:28:12.434Z,-15.8
2023-02-22T06:29:12.912Z,-15.76
2023-02-22T06:30:15.202Z,-15.81
2023-02-22T06:31:12.947Z,-15.79
2023-02-22T06:32:13.449Z,-15.76
2023-02-22T06:33:13.044Z,-15.76
2023-02-22T06:34:13.087Z,-15.66
2023-02-22T06:35:14.038Z,-15.78
2023-02-22T06:36:13.013Z,-15.7
2023-02-22T06:37:13.021Z,-15.7
2023-02-22T06:38:20.433Z,-15.72
2023-02-22T06:39:17.349Z,-15.66
2023-02-22T06:40:17.070Z,-15.64
2023-02-22T06:41:17.192Z,-15.56
2023-02-22T06:42:17.019Z,-15.55
2023-02-22T06:43:17.580Z,-15.5
2023-02-22T06:44:17.006Z,-15.54
2023-02-22T06:45:17.367Z,-15.49
2023-02-22T06:46:17.004Z,-15.47
2023-02-22T06:47:17.043Z,-15.52
2023-02-22T06:48:19.725Z,-15.48
2023-02-22T06:49:17.304Z,-15.43
2023-02-22T06:50:22.098Z,-15.38
2023-02-22T06:51:18.579Z,-15.38
2023-02-22T06:52:18.340Z,-15.4
2023-02-22T06:53:18.369Z,-15.42
2023-02-22T06:54:18.474Z,-15.36
2023-02-22T06:55:23.413Z,-15.3
2023-02-22T06:56:19.801Z,-15.3
2023-02-22T06:57:20.829Z,-15.33
2023-02-22T06:58:19.648Z,-15.33
2023-02-22T06:59:19.692Z,-15.32
2023-02-22T07:00:20.751Z,-15.38
2023-02-22T07:01:20.023Z,-15.38
2023-02-22T07:02:19.708Z,-15.31
2023-02-22T07:03:19.899Z,-15.33
2023-02-22T07:04:20.001Z,-15.37
2023-02-22T07:05:20.795Z,-15.38
2023-02-22T07:06:19.814Z,-15.34
2023-02-22T07:07:22.191Z,-15.35
2023-02-22T07:08:19.830Z,-15.32
2023-02-22T07:09:20.096Z,-15.28
2023-02-22T07:10:25.025Z,-15.34
2023-02-22T07:11:21.290Z,-15.27
2023-02-22T07:12:21.266Z,-15.18
2023-02-22T07:13:21.292Z,-15.3
2023-02-22T07:14:21.369Z,-15.21
2023-02-22T07:15:24.760Z,-15.19
2023-02-22T07:16:23.926Z,-15.18
2023-02-22T07:17:23.897Z,-15.15
2023-02-22T07:18:23.906Z,-15.18
2023-02-22T07:19:23.974Z,-15.12
2023-02-22T07:20:24.976Z,-15.13
2023-02-22T07:21:23.943Z,-15.09
2023-02-22T07:22:23.998Z,-15.09
2023-02-22T07:23:24.126Z,-15.06
2023-02-22T07:24:23.999Z,-15.04
2023-02-22T07:25:24.034Z,-15.04
2023-02-22T07:26:24.905Z,-15.12
2023-02-22T07:27:24.063Z,-15.1
2023-02-22T07:28:24.053Z,-15.04
2023-02-22T07:29:24.124Z,-14.97
2023-02-22T07:30:28.551Z,-14.92
2023-02-22T07:31:24.929Z,-14.93
2023-02-22T07:32:25.190Z,-14.85
2023-02-22T07:33:24.956Z,-14.81
2023-02-22T07:34:24.974Z,-14.74
2023-02-22T07:35:29.147Z,-14.7
2023-02-22T07:36:25.396Z,-14.61
2023-02-22T07:37:25.387Z,-14.6
2023-02-22T07:38:25.369Z,-14.58
2023-02-22T07:39:25.486Z,-14.58
2023-02-22T07:40:26.056Z,-14.51
2023-02-22T07:41:25.592Z,-14.56
2023-02-22T07:42:25.430Z,-14.62
2023-02-22T07:43:26.493Z,-14.48
2023-02-22T07:44:26.085Z,-14.54
2023-02-22T07:45:30.403Z,-15.03
2023-02-22T07:46:26.697Z,-14.78
2023-02-22T07:47:26.693Z,-14.51
2023-02-22T07:48:28.057Z,-14.84
2023-02-22T07:49:26.872Z,-14.73
2023-02-22T07:50:27.594Z,-14.45
2023-02-22T07:51:26.829Z,-14.32
2023-02-22T07:52:26.755Z,-14.15
2023-02-22T07:53:28.939Z,-14.03
2023-02-22T07:54:26.760Z,-13.94
2023-02-22T07:55:29.164Z,-14.01
2023-02-22T07:56:26.791Z,-14.37
2023-02-22T07:57:26.806Z,-14.24
2023-02-22T07:58:27.841Z,-14.08
2023-02-22T07:59:27.154Z,-13.93
2023-02-22T08:00:31.233Z,-13.88
2023-02-22T08:01:27.465Z,-13.79
2023-02-22T08:02:27.487Z,-13.73
2023-02-22T08:03:27.579Z,-13.69
2023-02-22T08:04:27.492Z,-13.65
2023-02-22T08:05:28.466Z,-13.61
2023-02-22T08:06:27.536Z,-13.51
2023-02-22T08:07:27.531Z,-13.49
2023-02-22T08:08:27.540Z,-13.52
2023-02-22T08:09:27.547Z,-13.49
2023-02-22T08:10:28.067Z,-13.5
2023-02-22T08:11:27.639Z,-13.33
2023-02-22T08:12:27.594Z,-13.28
2023-02-22T08:13:27.589Z,-13.32
2023-02-22T08:14:27.607Z,-13.31
2023-02-22T08:15:29.427Z,-13.29
2023-02-22T08:16:27.786Z,-13.27
2023-02-22T08:17:27.716Z,-13.21
2023-02-22T08:18:27.668Z,-13.18
2023-02-22T08:19:27.669Z,-13.08
2023-02-22T08:20:28.445Z,-13.07
2023-02-22T08:21:27.738Z,-13.01
2023-02-22T08:22:27.699Z,-12.93
2023-02-22T08:23:27.720Z,-12.88
2023-02-22T08:24:27.723Z,-12.92
2023-02-22T08:25:29.041Z,-12.98
2023-02-22T08:26:27.730Z,-12.85
2023-02-22T08:27:28.952Z,-12.72
2023-02-22T08:28:27.762Z,-12.75
2023-02-22T08:29:27.796Z,-12.7
2023-02-22T08:30:28.709Z,-12.62
2023-02-22T08:31:27.824Z,-12.59
2023-02-22T08:32:28.042Z,-12.56
2023-02-22T08:33:28.023Z,-12.64
2023-02-22T08:34:28.121Z,-12.77
2023-02-22T08:35:28.552Z,-12.76
2023-02-22T08:36:27.980Z,-12.71
2023-02-22T08:37:27.977Z,-12.61
2023-02-22T08:38:29.934Z,-12.53
2023-02-22T08:39:27.925Z,-12.49
2023-02-22T08:40:29.360Z,-12.46
2023-02-22T08:41:27.929Z,-12.37
2023-02-22T08:42:27.954Z,-12.26
2023-02-22T08:43:28.037Z,-12.11
2023-02-22T08:44:28.071Z,-12.08
2023-02-22T08:45:28.251Z,-12.04
2023-02-22T08:46:28.435Z,-12.07
2023-02-22T08:47:28.055Z,-12.01
2023-02-22T08:48:28.011Z,-11.93
2023-02-22T08:49:28.073Z,-11.85
2023-02-22T08:50:29.522Z,-11.91
2023-02-22T08:51:28.072Z,-11.93
2023-02-22T08:52:28.156Z,-11.84
2023-02-22T08:53:28.100Z,-11.79
2023-02-22T08:54:28.128Z,-11.76
2023-02-22T08:55:30.312Z,-11.91
2023-02-22T08:56:28.112Z,-11.84
2023-02-22T08:57:28.134Z,-11.73
2023-02-22T08:58:28.152Z,-11.68
2023-02-22T08:59:28.153Z,-11.6
2023-02-22T09:00:28.981Z,-11.53
2023-02-22T09:01:33.489Z,-11.55
2023-02-22T09:02:29.939Z,-11.6
2023-02-22T09:03:30.093Z,-11.58
2023-02-22T09:04:30.039Z,-11.69
2023-02-22T09:05:31.585Z,-11.71
2023-02-22T09:06:30.029Z,-11.7
2023-02-22T09:07:30.005Z,-11.66
2023-02-22T09:08:30.104Z,-11.54
2023-02-22T09:09:30.050Z,-11.54
2023-02-22T09:10:31.800Z,-11.52
2023-02-22T09:11:30.071Z,-11.5
2023-02-22T09:12:30.083Z,-11.49
2023-02-22T09:13:30.094Z,-11.25
2023-02-22T09:14:30.091Z,-11.17
2023-02-22T09:15:30.555Z,-11.06
2023-02-22T09:16:30.665Z,-11.07
2023-02-22T09:17:30.118Z,-11.09
2023-02-22T09:18:42.343Z,-11.19
2023-02-22T09:19:34.891Z,-11.21
2023-02-22T09:20:35.300Z,-11.28
2023-02-22T09:21:34.969Z,-11.13
2023-02-22T09:22:34.907Z,-11.07
2023-02-22T09:23:34.927Z,-10.98
2023-02-22T09:24:34.947Z,-10.94
2023-02-22T09:25:35.081Z,-10.94
2023-02-22T09:26:38.429Z,-10.83
2023-02-22T09:27:34.990Z,-10.85
2023-02-22T09:28:34.996Z,-11.02
2023-02-22T09:29:35.021Z,-10.96
2023-02-22T09:30:35.949Z,-11.04
2023-02-22T09:31:41.208Z,-10.99
2023-02-22T09:32:38.035Z,-11.04
2023-02-22T09:33:37.633Z,-10.97
2023-02-22T09:34:37.563Z,-10.96
2023-02-22T09:35:38.678Z,-10.83
2023-02-22T09:36:37.582Z,-10.88
2023-02-22T09:37:37.586Z,-10.86
2023-02-22T09:38:37.602Z,-10.9
2023-02-22T09:39:37.968Z,-10.89
2023-02-22T09:40:40.044Z,-10.59
2023-02-22T09:42:45.866Z,-10.53
2023-02-22T09:44:47.955Z,-10.5
2023-02-22T09:46:49.285Z,-10.48
2023-02-22T09:51:02.773Z,-10.4
2023-02-22T09:56:19.263Z,-10.2
2023-02-22T09:57:18.250Z,-10.24
2023-02-22T09:58:28.411Z,-10.18
2023-02-22T09:59:22.904Z,-10.16
2023-02-22T10:00:21.462Z,-10.21
2023-02-22T10:05:30.955Z,-10.07
2023-02-22T10:06:28.565Z,-10.23
2023-02-22T10:07:30.702Z,-10.07
2023-02-22T10:08:31.156Z,-9.97
2023-02-22T10:09:28.247Z,-9.85
2023-02-22T10:10:30.349Z,-10.08
2023-02-22T10:12:44.892Z,-9.98
2023-02-22T10:13:43.025Z,-9.83
2023-02-22T10:14:46.469Z,-9.71
2023-02-22T10:15:50.305Z,-9.57
2023-02-22T10:16:51.599Z,-9.5
2023-02-22T10:20:58.454Z,-9.68
2023-02-22T10:25:02.794Z,-9.64
2023-02-22T10:27:03.498Z,-9.58
2023-02-22T10:28:05.746Z,-9.58
2023-02-22T10:33:19.680Z,-9.48
2023-02-22T10:34:17.482Z,-9.44
2023-02-22T10:36:19.772Z,-9.32
2023-02-22T10:37:24.121Z,-9.2
2023-02-22T10:38:22.001Z,-9.32
2023-02-22T10:40:23.688Z,-9.3
2023-02-22T10:41:30.259Z,-9.24
2023-02-22T10:42:27.330Z,-9.23
2023-02-22T10:43:26.671Z,-9.25
2023-02-22T10:44:26.516Z,-9.31
2023-02-22T10:45:30.527Z,-9.1
2023-02-22T10:46:28.137Z,-8.99
2023-02-22T10:47:26.902Z,-8.77
2023-02-22T10:48:28.431Z,-8.77
2023-02-22T10:49:29.626Z,-8.73
2023-02-22T10:50:29.550Z,-8.65
2023-02-22T10:51:26.979Z,-8.73
2023-02-22T10:52:31.244Z,-8.96
2023-02-22T10:53:27.742Z,-8.7
2023-02-22T10:55:30.151Z,-8.62
2023-02-22T10:56:29.976Z,-8.57
2023-02-22T10:57:32.177Z,-8.66
2023-02-22T10:58:39.036Z,-8.81
2023-02-22T10:59:34.747Z,-8.91
2023-02-22T11:00:32.927Z,-8.7
2023-02-22T11:01:36.140Z,-8.68
2023-02-22T11:02:33.774Z,-8.66
2023-02-22T11:03:32.546Z,-8.54
2023-02-22T11:05:37.482Z,-8.78
2023-02-22T11:06:35.648Z,-8.65
2023-02-22T11:07:36.162Z,-8.67
2023-02-22T11:08:35.218Z,-8.83
2023-02-22T11:10:39.765Z,-8.72
2023-02-22T11:11:42.211Z,-8.68
2023-02-22T11:12:40.267Z,-8.88
2023-02-22T11:13:39.570Z,-8.74
2023-02-22T11:14:39.058Z,-8.78
2023-02-22T11:15:39.027Z,-8.72
2023-02-22T11:16:43.885Z,-8.84
2023-02-22T11:17:41.043Z,-8.91
2023-02-22T11:18:40.712Z,-8.82
2023-02-22T11:19:46.356Z,-8.78
2023-02-22T11:20:43.007Z,-8.67
2023-02-22T11:21:43.715Z,-8.76
2023-02-22T11:22:43.571Z,-8.7
2023-02-22T11:23:45.771Z,-8.7
2023-02-22T11:24:56.715Z,-8.67
2023-02-22T11:25:43.346Z,-8.47
2023-02-22T11:26:48.480Z,-8.4
2023-02-22T11:27:45.513Z,-8.22
2023-02-22T11:28:47.621Z,-8.26
2023-02-22T11:29:45.183Z,-8.51
2023-02-22T11:30:47.843Z,-8.37
2023-02-22T11:31:46.556Z,-8.19
2023-02-22T11:32:47.539Z,-8.09
2023-02-22T11:33:51.292Z,-8.05
2023-02-22T11:34:50.822Z,-8.22
2023-02-22T11:35:59.606Z,-8.02
2023-02-22T11:36:51.340Z,-8.21
2023-02-22T11:37:51.346Z,-8.26
2023-02-22T11:38:54.824Z,-8.2
2023-02-22T11:42:13.455Z,-8.48
2023-02-22T11:43:07.384Z,-8.36
2023-02-22T11:45:10.321Z,-8.47
2023-02-22T11:47:12.239Z,-8.43
2023-02-22T11:48:19.250Z,-8.53
2023-02-22T11:49:16.336Z,-8.58
2023-02-22T11:50:25.980Z,-8.53
2023-02-22T11:55:42.750Z,-8.11
2023-02-22T12:01:43.795Z,-7.66
2023-02-22T12:04:54.216Z,-7.93
2023-02-22T12:09:02.967Z,-8.17
2023-02-22T12:12:10.934Z,-8.37
2023-02-22T12:17:25.826Z,-8.43
2023-02-22T12:19:35.071Z,-8.06
2023-02-22T12:20:36.484Z,-7.83
2023-02-22T12:21:36.101Z,-7.67
2023-02-22T12:22:35.184Z,-7.48
2023-02-22T12:25:43.654Z,-7.8
2023-02-22T12:26:48.238Z,-7.78
2023-02-22T12:27:46.801Z,-7.9
2023-02-22T12:28:51.858Z,-8.01
2023-02-22T12:29:53.950Z,-8.09
2023-02-22T12:30:56.367Z,-8.24
2023-02-22T12:32:00.558Z,-8.28
2023-02-22T12:32:59.922Z,-8.1
2023-02-22T12:36:03.403Z,-7.9
2023-02-22T12:38:06.914Z,-8.06
2023-02-22T12:39:07.223Z,-8.06
2023-02-22T12:42:14.887Z,-7.86
2023-02-22T12:43:19.376Z,-7.99
2023-02-22T12:44:26.259Z,-7.88
2023-02-22T12:45:28.721Z,-7.65
2023-02-22T12:46:24.142Z,-7.7
2023-02-22T12:47:23.356Z,-7.98
2023-02-22T12:50:27.039Z,-8.03
2023-02-22T12:53:33.413Z,-8.24
2023-02-22T12:55:41.257Z,-8.03
2023-02-22T12:56:41.614Z,-8.17
2023-02-22T12:58:46.211Z,-8.25
2023-02-22T13:00:48.134Z,-8.16
2023-02-22T13:03:50.359Z,-8.03
2023-02-22T13:04:50.333Z,-8.09
2023-02-22T13:05:54.986Z,-7.82
2023-02-22T13:09:08.411Z,-7.55
2023-02-22T13:10:07.611Z,-7.64
2023-02-22T13:16:32.321Z,-7.56
2023-02-22T13:24:54.316Z,-7.87
2023-02-22T13:29:55.263Z,-8.07
2023-02-22T13:42:33.032Z,-8.63
2023-02-22T13:52:54.593Z,-8
2023-02-22T13:54:57.554Z,-7.85
2023-02-22T13:55:55.630Z,-7.78
2023-02-22T13:56:55.609Z,-7.93
2023-02-22T13:58:00.781Z,-8.15
2023-02-22T13:58:59.000Z,-8.25
2023-02-22T14:01:01.380Z,-8.3
2023-02-22T14:02:02.490Z,-8.38
2023-02-22T14:13:28.379Z,-8.64
2023-02-22T14:14:24.662Z,-8.69
2023-02-22T14:15:30.016Z,-8.7
2023-02-22T14:16:27.495Z,-8.7
2023-02-22T14:17:28.596Z,-8.72
2023-02-22T14:18:28.311Z,-8.75
2023-02-22T14:19:27.311Z,-8.75
2023-02-22T14:20:29.442Z,-8.79
2023-02-22T14:21:27.208Z,-8.86
2023-02-22T14:22:28.953Z,-8.77
2023-02-22T14:24:29.359Z,-8.82
2023-02-22T14:26:34.435Z,-8.78
2023-02-22T14:28:33.395Z,-8.8
2023-02-22T14:29:32.105Z,-8.82
2023-02-22T14:30:37.242Z,-8.81
2023-02-22T14:31:38.143Z,-8.82
2023-02-22T14:32:35.254Z,-8.88
2023-02-22T14:34:40.808Z,-8.8
2023-02-22T14:35:49.507Z,-8.84
2023-02-22T14:37:48.101Z,-8.91
2023-02-22T14:38:45.568Z,-8.9
2023-02-22T14:40:50.978Z,-8.94
2023-02-22T14:43:55.859Z,-9.03
2023-02-22T14:45:56.264Z,-9.09
2023-02-22T14:46:56.719Z,-9.16
2023-02-22T14:51:11.894Z,-9.29
2023-02-22T14:52:04.964Z,-9.35
2023-02-22T14:57:18.752Z,-9.58
2023-02-22T14:58:16.413Z,-9.68
2023-02-22T14:59:15.368Z,-9.71
2023-02-22T15:00:23.786Z,-9.67
2023-02-22T15:01:16.939Z,-9.73
2023-02-22T15:02:15.628Z,-9.72
2023-02-22T15:04:19.900Z,-9.82
2023-02-22T15:05:19.421Z,-9.85
2023-02-22T15:06:22.972Z,-9.94
2023-02-22T15:07:24.622Z,-10.05
2023-02-22T15:08:21.290Z,-9.94
2023-02-22T15:09:29.060Z,-9.94
2023-02-22T15:10:23.630Z,-9.9
2023-02-22T15:11:28.382Z,-9.96
2023-02-22T15:12:27.284Z,-10.08
2023-02-22T15:13:26.843Z,-10.12
2023-02-22T15:14:26.689Z,-10.16
2023-02-22T15:15:25.227Z,-10.25
2023-02-22T15:16:27.532Z,-10.2
2023-02-22T15:17:25.234Z,-10.23
2023-02-22T15:18:37.039Z,-10.33
2023-02-22T15:19:33.026Z,-10.37
2023-02-22T15:20:30.172Z,-10.51
2023-02-22T15:21:30.293Z,-10.45
2023-02-22T15:22:34.187Z,-10.43
2023-02-22T15:23:39.973Z,-10.43
2023-02-22T15:24:34.189Z,-10.37
2023-02-22T15:25:31.832Z,-10.72
2023-02-22T15:26:35.938Z,-10.84
2023-02-22T15:27:33.581Z,-10.63
2023-02-22T15:28:32.673Z,-10.6
2023-02-22T15:29:35.183Z,-10.77
2023-02-22T15:30:33.089Z,-10.77
2023-02-22T15:31:34.064Z,-10.7
2023-02-22T15:32:37.268Z,-10.74
2023-02-22T15:33:33.991Z,-10.63
2023-02-22T15:34:33.987Z,-10.63
2023-02-22T15:35:34.168Z,-10.77
2023-02-22T15:36:34.067Z,-10.82
2023-02-22T15:37:34.112Z,-10.69
2023-02-22T15:38:34.045Z,-10.8
2023-02-22T15:39:34.254Z,-10.92
2023-02-22T15:40:34.649Z,-10.98
2023-02-22T15:41:35.109Z,-11.09
2023-02-22T15:42:42.299Z,-11.2
2023-02-22T15:43:38.955Z,-11.29
2023-02-22T15:44:42.546Z,-11.2
2023-02-22T15:45:39.301Z,-11.32
2023-02-22T15:46:39.524Z,-11.39
2023-02-22T15:47:39.346Z,-11.47
2023-02-22T15:48:39.264Z,-11.37
2023-02-22T15:49:39.258Z,-11.34
2023-02-22T15:50:39.348Z,-11.32
2023-02-22T15:51:41.759Z,-11.75
2023-02-22T15:52:39.329Z,-11.44
2023-02-22T15:53:49.551Z,-11.7
2023-02-22T15:54:44.111Z,-11.38
2023-02-22T15:55:43.048Z,-11.78
2023-02-22T15:56:47.334Z,-11.88